UAE78L LIRF-OMDB
Flight info
| Callsign | UAE78L |
|---|---|
| Flight time | N/A |
| Altitude | 19000 |
| Route | PEPIX L50 UNIXO/N0473F350 DCT BELIX UM728 GAVDO/N0481F370 UM728 SALUN N705 BOPIX N710 TAKRI M720 FYM M872 WEJ L604 GAS L308 DAROR P559 NALPO/N0475F350 P559 VUTEB |
| Aircraft | B77W/H-SDE1E2E3FGHIJ2J3J4J5M1RWXY/LB1D1 |
Departure
| Time | N/A |
|---|---|
| Airport | Rome–Fiumicino Leonardo da Vinci International Airport (LIRF) |
Arrival
| Time | 2026-04-26 15:47 |
|---|---|
| Airport | Dubai International Airport (OMDB) |
| Time | Latitude | Longitude | Altitude | Speed | Heading |
|---|---|---|---|---|---|
| 2026-04-26 15:22 | 25.64425 | 54.37088 | 18231 ft | 457 kts | 111° |
| 2026-04-26 15:23 | 25.63411 | 54.40404 | 17596 ft | 452 kts | 111° |
| 2026-04-26 15:23 | 25.62407 | 54.43691 | 16945 ft | 448 kts | 111° |
| 2026-04-26 15:23 | 25.61414 | 54.46937 | 16377 ft | 442 kts | 111° |
| 2026-04-26 15:23 | 25.60429 | 54.50151 | 15725 ft | 438 kts | 111° |
| 2026-04-26 15:24 | 25.59450 | 54.53335 | 15059 ft | 435 kts | 111° |
| 2026-04-26 15:24 | 25.58622 | 54.56530 | 14410 ft | 432 kts | 102° |
| 2026-04-26 15:24 | 25.58262 | 54.59812 | 13802 ft | 428 kts | 94° |
| 2026-04-26 15:24 | 25.58293 | 54.63090 | 13357 ft | 421 kts | 85° |
| 2026-04-26 15:25 | 25.58678 | 54.66243 | 13126 ft | 407 kts | 81° |
| 2026-04-26 15:25 | 25.58956 | 54.68277 | 12994 ft | 399 kts | 81° |
| 2026-04-26 15:25 | 25.59497 | 54.72257 | 12747 ft | 383 kts | 81° |
| 2026-04-26 15:25 | 25.59870 | 54.75091 | 12593 ft | 371 kts | 81° |
| 2026-04-26 15:26 | 25.60228 | 54.77879 | 12436 ft | 360 kts | 82° |
| 2026-04-26 15:26 | 25.60570 | 54.80587 | 12287 ft | 349 kts | 82° |
| 2026-04-26 15:26 | 25.60902 | 54.83216 | 12148 ft | 340 kts | 82° |
| 2026-04-26 15:26 | 25.61132 | 54.85768 | 11975 ft | 323 kts | 92° |
| 2026-04-26 15:27 | 25.60691 | 54.88108 | 11861 ft | 303 kts | 113° |
| 2026-04-26 15:27 | 25.59860 | 54.90227 | 11765 ft | 299 kts | 115° |
| 2026-04-26 15:27 | 25.59008 | 54.92331 | 11646 ft | 299 kts | 115° |
| 2026-04-26 15:27 | 25.58160 | 54.94429 | 11524 ft | 298 kts | 115° |
| 2026-04-26 15:28 | 25.57323 | 54.96529 | 11398 ft | 297 kts | 115° |
| 2026-04-26 15:28 | 25.56495 | 54.98622 | 11274 ft | 297 kts | 115° |
| 2026-04-26 15:28 | 25.55671 | 55.00710 | 11154 ft | 295 kts | 114° |
| 2026-04-26 15:28 | 25.54851 | 55.02793 | 11027 ft | 295 kts | 115° |
| 2026-04-26 15:29 | 25.53954 | 55.04830 | 10879 ft | 295 kts | 120° |
| 2026-04-26 15:29 | 25.52928 | 55.06803 | 10728 ft | 296 kts | 122° |
| 2026-04-26 15:29 | 25.50827 | 55.10737 | 10409 ft | 298 kts | 121° |
| 2026-04-26 15:30 | 25.48787 | 55.14632 | 10099 ft | 299 kts | 121° |
| 2026-04-26 15:30 | 25.47706 | 55.16704 | 9930 ft | 299 kts | 121° |
| 2026-04-26 15:30 | 25.46670 | 55.18694 | 9767 ft | 298 kts | 121° |
| 2026-04-26 15:31 | 25.45572 | 55.20624 | 9605 ft | 295 kts | 129° |
| 2026-04-26 15:31 | 25.42827 | 55.23980 | 9350 ft | 294 kts | 135° |
| 2026-04-26 15:31 | 25.41427 | 55.25623 | 9213 ft | 293 kts | 134° |
| 2026-04-26 15:32 | 25.39141 | 55.28381 | 8984 ft | 292 kts | 134° |
| 2026-04-26 15:32 | 25.37360 | 55.30558 | 8802 ft | 279 kts | 133° |
| 2026-04-26 15:32 | 25.36088 | 55.32120 | 8674 ft | 268 kts | 135° |
| 2026-04-26 15:33 | 25.34651 | 55.33383 | 8572 ft | 264 kts | 152° |
| 2026-04-26 15:33 | 25.33035 | 55.34349 | 8415 ft | 265 kts | 156° |
| 2026-04-26 15:33 | 25.31385 | 55.35268 | 8103 ft | 266 kts | 156° |
| 2026-04-26 15:33 | 25.29748 | 55.36181 | 7834 ft | 262 kts | 156° |
| 2026-04-26 15:34 | 25.28134 | 55.37094 | 7544 ft | 259 kts | 155° |
| 2026-04-26 15:34 | 25.26548 | 55.38008 | 7251 ft | 258 kts | 155° |
| 2026-04-26 15:34 | 25.24963 | 55.38926 | 7024 ft | 253 kts | 155° |
| 2026-04-26 15:34 | 25.23417 | 55.39827 | 6890 ft | 251 kts | 155° |
| 2026-04-26 15:35 | 25.21858 | 55.40736 | 6786 ft | 256 kts | 155° |
| 2026-04-26 15:35 | 25.20291 | 55.41650 | 6682 ft | 259 kts | 155° |
| 2026-04-26 15:35 | 25.18700 | 55.42582 | 6559 ft | 258 kts | 155° |
| 2026-04-26 15:35 | 25.17114 | 55.43513 | 6431 ft | 257 kts | 155° |
| 2026-04-26 15:36 | 25.15536 | 55.44434 | 6304 ft | 257 kts | 155° |
| 2026-04-26 15:36 | 25.13964 | 55.45352 | 6193 ft | 254 kts | 155° |
| 2026-04-26 15:36 | 25.12412 | 55.46258 | 6098 ft | 251 kts | 155° |
| 2026-04-26 15:36 | 25.10996 | 55.47352 | 5975 ft | 252 kts | 129° |
| 2026-04-26 15:37 | 25.10043 | 55.48977 | 5943 ft | 255 kts | 121° |
| 2026-04-26 15:37 | 25.09114 | 55.50679 | 5903 ft | 261 kts | 121° |
| 2026-04-26 15:37 | 25.08164 | 55.52391 | 5803 ft | 260 kts | 121° |
| 2026-04-26 15:37 | 25.07220 | 55.54087 | 5666 ft | 260 kts | 122° |
| 2026-04-26 15:38 | 25.06278 | 55.55775 | 5602 ft | 257 kts | 122° |
| 2026-04-26 15:38 | 25.05344 | 55.57445 | 5510 ft | 254 kts | 122° |
| 2026-04-26 15:38 | 25.04424 | 55.59087 | 5452 ft | 249 kts | 121° |
| 2026-04-26 15:38 | 25.03533 | 55.60687 | 5338 ft | 240 kts | 121° |
| 2026-04-26 15:39 | 25.02758 | 55.62284 | 5061 ft | 233 kts | 105° |
| 2026-04-26 15:39 | 25.02721 | 55.64007 | 4787 ft | 221 kts | 68° |
| 2026-04-26 15:39 | 25.03517 | 55.65361 | 4692 ft | 206 kts | 36° |
| 2026-04-26 15:39 | 25.04314 | 55.65935 | 4658 ft | 202 kts | 16° |
| 2026-04-26 15:40 | 25.06098 | 55.65885 | 4598 ft | 195 kts | 337° |
| 2026-04-26 15:40 | 25.07352 | 55.65288 | 4578 ft | 199 kts | 333° |
| 2026-04-26 15:40 | 25.08614 | 55.64637 | 4531 ft | 200 kts | 332° |
| 2026-04-26 15:40 | 25.09771 | 55.63854 | 4439 ft | 193 kts | 313° |
| 2026-04-26 15:41 | 25.10594 | 55.62713 | 4410 ft | 190 kts | 306° |
| 2026-04-26 15:41 | 25.11355 | 55.61505 | 4354 ft | 192 kts | 303° |
| 2026-04-26 15:41 | 25.12067 | 55.60282 | 4298 ft | 186 kts | 302° |
| 2026-04-26 15:41 | 25.12751 | 55.59066 | 4068 ft | 185 kts | 302° |
| 2026-04-26 15:42 | 25.13413 | 55.57876 | 3843 ft | 176 kts | 301° |
| 2026-04-26 15:42 | 25.14029 | 55.56765 | 3597 ft | 164 kts | 301° |
| 2026-04-26 15:42 | 25.14595 | 55.55745 | 3411 ft | 151 kts | 301° |
| 2026-04-26 15:42 | 25.15121 | 55.54795 | 3216 ft | 142 kts | 301° |
| 2026-04-26 15:43 | 25.15632 | 55.53868 | 3042 ft | 142 kts | 302° |
| 2026-04-26 15:43 | 25.16150 | 55.52933 | 2845 ft | 143 kts | 301° |
| 2026-04-26 15:43 | 25.17195 | 55.51049 | 2461 ft | 145 kts | 300° |
| 2026-04-26 15:44 | 25.17721 | 55.50096 | 2271 ft | 145 kts | 300° |
| 2026-04-26 15:44 | 25.18777 | 55.48184 | 1883 ft | 146 kts | 300° |
| 2026-04-26 15:44 | 25.19311 | 55.47223 | 1690 ft | 146 kts | 300° |
| 2026-04-26 15:45 | 25.20376 | 55.45297 | 1297 ft | 148 kts | 300° |
| 2026-04-26 15:45 | 25.20911 | 55.44326 | 1099 ft | 148 kts | 300° |
| 2026-04-26 15:46 | 25.21976 | 55.42404 | 715 ft | 146 kts | 300° |
| 2026-04-26 15:46 | 25.22507 | 55.41445 | 521 ft | 146 kts | 300° |
| 2026-04-26 15:46 | 25.23037 | 55.40485 | 314 ft | 146 kts | 300° |
| 2026-04-26 15:46 | 25.23388 | 55.39855 | 166 ft | 146 kts | 300° |
| 2026-04-26 15:47 | 25.24090 | 55.38592 | 35 ft | 129 kts | 301° |
| 2026-04-26 15:47 | 25.24647 | 55.37583 | 33 ft | 65 kts | 301° |
| 2026-04-26 15:47 | 25.24773 | 55.37297 | 34 ft | 26 kts | 285° |
| 2026-04-26 15:48 | 25.24787 | 55.37136 | 32 ft | 13 kts | 271° |
| 2026-04-26 15:48 | 25.24790 | 55.37057 | 30 ft | 0 kts | 272° |
| 2026-04-26 15:49 | 25.24790 | 55.37041 | 29 ft | 0 kts | 273° |
| 2026-04-26 15:49 | 25.24790 | 55.37037 | 29 ft | 5 kts | 273° |
| 2026-04-26 15:49 | 25.24796 | 55.36980 | 28 ft | 7 kts | 282° |
| 2026-04-26 15:50 | 25.24810 | 55.36938 | 28 ft | 4 kts | 295° |
| 2026-04-26 15:50 | 25.24812 | 55.36935 | 28 ft | 0 kts | 295° |
| 2026-04-26 15:50 | 25.24816 | 55.36924 | 28 ft | 8 kts | 295° |
| 2026-04-26 15:50 | 25.24852 | 55.36821 | 28 ft | 9 kts | 285° |
| 2026-04-26 15:51 | 25.24868 | 55.36755 | 27 ft | 18 kts | 284° |
| 2026-04-26 15:51 | 25.24905 | 55.36646 | 27 ft | 11 kts | 298° |
| 2026-04-26 15:51 | 25.24896 | 55.36586 | 27 ft | 7 kts | 227° |
| 2026-04-26 15:51 | 25.24850 | 55.36551 | 26 ft | 9 kts | 213° |
| 2026-04-26 15:52 | 25.24804 | 55.36519 | 26 ft | 6 kts | 212° |
| 2026-04-26 15:52 | 25.24783 | 55.36504 | 31 ft | 4 kts | 211° |
| 2026-04-26 15:52 | 25.24772 | 55.36497 | 26 ft | 1 kts | 211° |
| 2026-04-26 15:52 | 25.24771 | 55.36497 | 26 ft | 0 kts | 211° |